createdAt,value
2023-04-04T00:00:38.721Z,1.30
2023-04-04T00:03:08.073Z,1.02
2023-04-04T00:05:36.187Z,1.30
2023-04-04T00:08:04.173Z,1.15
2023-04-04T00:10:33.275Z,1.30
2023-04-04T00:13:01.169Z,1.10
2023-04-04T00:15:28.791Z,1.17
2023-04-04T00:17:57.243Z,1.48
2023-04-04T00:20:25.040Z,1.00
2023-04-04T00:22:52.625Z,1.13
2023-04-04T00:25:20.285Z,1.10
2023-04-04T00:27:49.936Z,1.02
2023-04-04T00:30:17.615Z,1.08
2023-04-04T00:32:45.508Z,1.10
2023-04-04T00:35:13.800Z,1.10
2023-04-04T00:37:41.360Z,1.48
2023-04-04T00:40:10.144Z,1.25
2023-04-04T00:42:38.319Z,1.23
2023-04-04T00:45:08.670Z,1.23
2023-04-04T00:47:37.341Z,1.30
2023-04-04T00:50:05.786Z,1.65
2023-04-04T00:52:33.481Z,1.50
2023-04-04T00:55:01.357Z,1.40
2023-04-04T00:57:29.910Z,1.20
2023-04-04T00:59:58.122Z,1.40
2023-04-04T01:02:27.574Z,1.90
2023-04-04T01:04:55.649Z,1.30
2023-04-04T01:07:23.352Z,1.70
2023-04-04T01:09:51.506Z,1.50
2023-04-04T01:12:20.750Z,1.38
2023-04-04T01:14:48.511Z,1.48
2023-04-04T01:17:16.889Z,1.65
2023-04-04T01:19:54.467Z,1.55
2023-04-04T01:22:23.898Z,1.60
2023-04-04T01:24:52.996Z,1.73
2023-04-04T01:27:22.015Z,1.90
2023-04-04T01:29:56.675Z,1.85
2023-04-04T01:32:31.174Z,1.58
2023-04-04T01:35:06.862Z,1.23
2023-04-04T01:37:37.873Z,1.55
2023-04-04T01:40:13.292Z,1.45
2023-04-04T01:42:45.222Z,1.52
2023-04-04T01:45:13.705Z,1.55
2023-04-04T01:47:42.792Z,1.75
2023-04-04T01:50:16.204Z,1.65
2023-04-04T01:52:44.439Z,1.50
2023-04-04T01:55:12.394Z,1.58
2023-04-04T01:57:39.991Z,1.60
2023-04-04T02:00:10.955Z,1.58
2023-04-04T02:02:45.024Z,1.40
2023-04-04T02:05:13.211Z,1.70
2023-04-04T02:07:41.402Z,1.58
2023-04-04T02:10:20.856Z,1.65
2023-04-04T02:12:48.563Z,1.30
2023-04-04T02:15:17.640Z,1.50
2023-04-04T02:17:48.600Z,1.98
2023-04-04T02:20:19.295Z,1.70
2023-04-04T02:22:52.737Z,1.67
2023-04-04T02:25:20.710Z,1.35
2023-04-04T02:27:48.383Z,1.63
2023-04-04T02:30:17.562Z,1.73
2023-04-04T02:32:45.726Z,2.00
2023-04-04T02:35:17.739Z,1.85
2023-04-04T02:37:47.254Z,1.70
2023-04-04T02:40:21.843Z,1.80
2023-04-04T02:42:49.726Z,2.10
2023-04-04T02:45:18.922Z,2.25
2023-04-04T02:47:56.358Z,2.05
2023-04-04T02:50:28.489Z,2.05
2023-04-04T02:53:01.218Z,2.47
2023-04-04T02:55:31.340Z,2.60
2023-04-04T02:57:59.189Z,2.30
2023-04-04T03:00:28.254Z,1.90
2023-04-04T03:02:56.674Z,1.95
2023-04-04T03:05:31.779Z,1.85
2023-04-04T03:08:00.468Z,1.60
2023-04-04T03:10:30.260Z,1.95
2023-04-04T03:12:58.965Z,1.73
2023-04-04T03:15:30.525Z,1.70
2023-04-04T03:18:00.139Z,2.03
2023-04-04T03:20:29.864Z,1.95
2023-04-04T03:22:57.763Z,1.85
2023-04-04T03:25:25.826Z,1.58
2023-04-04T03:27:53.485Z,1.85
2023-04-04T03:30:24.314Z,1.85
2023-04-04T03:32:53.680Z,2.05
2023-04-04T03:35:21.532Z,1.92
2023-04-04T03:37:49.249Z,1.50
2023-04-04T03:40:17.814Z,1.85
2023-04-04T03:42:45.703Z,1.77
2023-04-04T03:45:16.037Z,1.60
2023-04-04T03:47:44.437Z,1.65
2023-04-04T03:50:13.524Z,1.73
2023-04-04T03:52:48.446Z,1.58
2023-04-04T03:55:16.105Z,1.98
2023-04-04T03:57:43.880Z,1.75
2023-04-04T04:00:15.069Z,1.77
2023-04-04T04:02:44.691Z,1.80
2023-04-04T04:05:13.846Z,1.65
2023-04-04T04:07:44.375Z,1.80
2023-04-04T04:10:13.988Z,1.98
2023-04-04T04:12:41.734Z,1.83
2023-04-04T04:15:09.873Z,2.42
2023-04-04T04:17:40.194Z,2.40
2023-04-04T04:20:10.497Z,2.35
2023-04-04T04:22:48.148Z,1.77
2023-04-04T04:25:16.479Z,1.92
2023-04-04T04:27:49.297Z,2.22
2023-04-04T04:30:18.187Z,2.40
2023-04-04T04:32:46.944Z,2.10
2023-04-04T04:35:15.627Z,1.90
2023-04-04T04:37:44.614Z,2.55
2023-04-04T04:40:14.956Z,2.00
2023-04-04T04:42:46.144Z,2.13
2023-04-04T04:45:16.852Z,2.20
2023-04-04T04:47:49.798Z,2.53
2023-04-04T04:50:19.148Z,1.90
2023-04-04T04:52:51.494Z,1.95
2023-04-04T04:55:20.640Z,1.92
2023-04-04T04:57:59.283Z,1.90
2023-04-04T05:00:28.893Z,1.95
2023-04-04T05:02:56.999Z,1.70
2023-04-04T05:05:38.876Z,2.03
2023-04-04T05:08:11.087Z,2.10
2023-04-04T05:10:47.002Z,2.17
2023-04-04T05:13:14.996Z,2.35
2023-04-04T05:15:47.663Z,2.25
2023-04-04T05:18:16.339Z,2.40
2023-04-04T05:20:44.750Z,2.25
2023-04-04T05:23:15.064Z,2.25
2023-04-04T05:25:43.470Z,2.05
2023-04-04T05:28:12.932Z,2.70
2023-04-04T05:30:41.498Z,2.33
2023-04-04T05:33:16.970Z,2.40
2023-04-04T05:35:51.892Z,2.20
2023-04-04T05:38:19.607Z,1.98
2023-04-04T05:40:49.407Z,2.25
2023-04-04T05:43:18.773Z,2.25
2023-04-04T05:45:57.375Z,2.72
2023-04-04T05:48:25.989Z,2.97
2023-04-04T05:50:54.548Z,2.85
2023-04-04T05:53:34.846Z,2.72
2023-04-04T05:56:04.099Z,2.70
2023-04-04T05:58:36.790Z,2.83
2023-04-04T06:01:07.770Z,2.50
2023-04-04T06:03:36.584Z,2.65
2023-04-04T06:06:07.028Z,2.67
2023-04-04T06:08:46.647Z,2.30
2023-04-04T06:11:21.794Z,2.70
2023-04-04T06:13:51.261Z,2.83
2023-04-04T06:16:20.963Z,2.63
2023-04-04T06:18:49.370Z,2.58
2023-04-04T06:21:17.549Z,2.88
2023-04-04T06:23:45.643Z,2.35
2023-04-04T06:26:14.816Z,2.60
2023-04-04T06:28:49.253Z,2.20
2023-04-04T06:31:21.252Z,2.00
2023-04-04T06:33:49.914Z,2.13
2023-04-04T06:36:19.817Z,2.45
2023-04-04T06:38:48.327Z,2.25
2023-04-04T06:41:21.869Z,2.17
2023-04-04T06:43:51.495Z,2.40
2023-04-04T06:46:19.284Z,2.70
2023-04-04T06:48:49.368Z,2.00
2023-04-04T06:51:18.405Z,2.38
2023-04-04T06:53:47.366Z,2.25
2023-04-04T06:56:15.042Z,2.30
2023-04-04T06:58:43.107Z,2.00
2023-04-04T07:01:11.781Z,2.10
2023-04-04T07:03:39.627Z,2.20
2023-04-04T07:06:08.599Z,2.58
2023-04-04T07:08:37.045Z,2.08
2023-04-04T07:11:06.264Z,1.75
2023-04-04T07:13:35.114Z,1.73
2023-04-04T07:16:02.897Z,1.73
2023-04-04T07:18:30.951Z,2.13
2023-04-04T07:20:59.472Z,1.90
2023-04-04T07:23:28.482Z,2.15
2023-04-04T07:25:56.128Z,2.22
2023-04-04T07:28:23.760Z,2.00
2023-04-04T07:30:51.364Z,2.00
2023-04-04T07:33:18.984Z,2.30
2023-04-04T07:35:46.870Z,2.13
2023-04-04T07:38:14.532Z,1.90
2023-04-04T07:40:43.502Z,1.80
2023-04-04T07:43:11.186Z,2.10
2023-04-04T07:45:38.828Z,1.92
2023-04-04T07:48:06.981Z,1.95
2023-04-04T07:50:34.716Z,1.67
2023-04-04T07:53:02.500Z,1.60
2023-04-04T07:55:30.170Z,1.75
2023-04-04T07:57:59.494Z,1.60
2023-04-04T08:00:27.098Z,2.15
2023-04-04T08:02:55.951Z,1.60
2023-04-04T08:05:23.956Z,2.00
2023-04-04T08:07:51.746Z,1.67
2023-04-04T08:10:21.526Z,1.90
2023-04-04T08:12:49.433Z,1.60
2023-04-04T08:15:18.617Z,2.03
2023-04-04T08:17:46.264Z,1.70
2023-04-04T08:20:14.273Z,1.48
2023-04-04T08:22:43.391Z,1.48
2023-04-04T08:25:11.817Z,1.50
2023-04-04T08:27:43.961Z,1.50
2023-04-04T08:30:15.904Z,1.40
2023-04-04T08:32:45.953Z,2.00
2023-04-04T08:35:14.098Z,1.73
2023-04-04T08:37:45.128Z,1.40
2023-04-04T08:40:13.371Z,1.80
2023-04-04T08:42:43.234Z,1.80
2023-04-04T08:45:12.891Z,1.70
2023-04-04T08:47:42.980Z,1.58
2023-04-04T08:50:13.128Z,2.00
2023-04-04T08:52:41.726Z,1.70
2023-04-04T08:55:10.241Z,1.60
2023-04-04T08:57:37.967Z,1.70
2023-04-04T09:00:07.403Z,1.73
2023-04-04T09:02:38.550Z,1.80
2023-04-04T09:05:08.814Z,1.60
2023-04-04T09:07:39.366Z,2.10
2023-04-04T09:10:11.016Z,1.77
2023-04-04T09:12:40.971Z,2.00
2023-04-04T09:15:09.893Z,1.77
2023-04-04T09:17:38.403Z,2.30
2023-04-04T09:20:38.056Z,1.60
2023-04-04T09:23:07.786Z,2.08
2023-04-04T09:25:35.870Z,1.58
2023-04-04T09:28:05.621Z,1.60
2023-04-04T09:30:35.548Z,2.00
2023-04-04T09:33:05.266Z,1.90
2023-04-04T09:35:35.232Z,2.13
2023-04-04T09:38:04.410Z,1.77
2023-04-04T09:40:32.591Z,1.70
2023-04-04T09:43:04.622Z,1.50
2023-04-04T09:45:32.816Z,2.25
2023-04-04T09:48:01.153Z,1.60
2023-04-04T09:50:30.396Z,2.10
2023-04-04T09:53:00.201Z,1.70
2023-04-04T09:55:36.512Z,1.80
2023-04-04T09:58:13.749Z,1.58
2023-04-04T10:00:44.855Z,1.55
2023-04-04T10:03:14.434Z,1.50
2023-04-04T10:05:42.488Z,1.40
2023-04-04T10:08:17.984Z,2.50
2023-04-04T10:11:02.456Z,1.40
2023-04-04T10:13:36.796Z,1.40
2023-04-04T10:16:05.959Z,1.50
2023-04-04T10:18:35.418Z,1.75
2023-04-04T10:21:15.092Z,1.60
2023-04-04T10:23:46.447Z,1.80
2023-04-04T10:26:15.677Z,1.85
2023-04-04T10:28:43.858Z,1.45
2023-04-04T10:31:18.386Z,1.80
2023-04-04T10:33:53.578Z,1.77
2023-04-04T10:36:24.270Z,1.52
2023-04-04T10:39:00.012Z,1.63
2023-04-04T10:41:32.754Z,1.40
2023-04-04T10:44:05.694Z,1.52
2023-04-04T10:46:35.290Z,1.48
2023-04-04T10:49:03.697Z,1.27
2023-04-04T10:51:35.280Z,1.48
2023-04-04T10:54:08.176Z,1.20
2023-04-04T10:56:37.597Z,1.50
2023-04-04T10:59:13.570Z,1.50
2023-04-04T11:01:49.053Z,1.30
2023-04-04T11:04:20.299Z,1.40
2023-04-04T11:07:11.317Z,1.70
2023-04-04T11:09:56.020Z,1.77
2023-04-04T11:12:29.951Z,1.20
2023-04-04T11:15:14.437Z,1.30
2023-04-04T11:17:57.391Z,1.60
2023-04-04T11:20:29.815Z,1.20
2023-04-04T11:23:11.380Z,1.40
2023-04-04T11:25:41.229Z,1.20
2023-04-04T11:28:26.634Z,1.27
2023-04-04T11:31:28.989Z,1.00
2023-04-04T11:34:03.664Z,1.25
2023-04-04T11:36:51.822Z,1.23
2023-04-04T11:39:28.634Z,1.23
2023-04-04T11:41:58.748Z,1.20
2023-04-04T11:44:30.619Z,1.13
2023-04-04T11:47:04.587Z,0.93
2023-04-04T11:49:35.661Z,1.10
2023-04-04T11:52:06.472Z,1.00
2023-04-04T11:54:34.625Z,0.90
2023-04-04T11:57:03.688Z,1.27
2023-04-04T11:59:32.904Z,1.05
2023-04-04T12:02:03.161Z,1.00
2023-04-04T12:04:31.007Z,1.10
2023-04-04T12:07:00.499Z,1.10
2023-04-04T12:09:28.398Z,1.30
2023-04-04T12:11:56.891Z,1.30
2023-04-04T12:14:25.770Z,1.02
2023-04-04T12:16:56.708Z,1.17
2023-04-04T12:19:24.896Z,1.23
2023-04-04T12:21:54.219Z,1.30
2023-04-04T12:24:22.482Z,1.20
2023-04-04T12:26:52.900Z,1.20
2023-04-04T12:29:23.588Z,1.30
2023-04-04T12:31:52.917Z,1.30
2023-04-04T12:34:23.803Z,1.25
2023-04-04T12:36:54.038Z,1.10
2023-04-04T12:39:23.284Z,1.05
2023-04-04T12:41:54.014Z,1.10
2023-04-04T12:44:29.177Z,1.13
2023-04-04T12:46:59.978Z,1.23
2023-04-04T12:49:31.344Z,1.60
2023-04-04T12:52:03.835Z,1.33
2023-04-04T12:54:33.496Z,1.58
2023-04-04T12:57:04.439Z,1.40
2023-04-04T12:59:33.513Z,1.42
2023-04-04T13:02:03.142Z,1.20
2023-04-04T13:04:33.328Z,1.50
2023-04-04T13:07:01.983Z,1.20
2023-04-04T13:09:30.036Z,1.33
2023-04-04T13:11:59.947Z,2.78
2023-04-04T13:14:28.113Z,1.63
2023-04-04T13:17:08.296Z,1.27
2023-04-04T13:19:37.384Z,1.33
2023-04-04T13:22:08.714Z,1.30
2023-04-04T13:24:36.779Z,1.30
2023-04-04T13:27:05.153Z,1.50
2023-04-04T13:29:33.137Z,0.93
2023-04-04T13:32:01.723Z,1.00
2023-04-04T13:34:29.364Z,1.38
2023-04-04T13:36:58.703Z,1.45
2023-04-04T13:39:26.574Z,1.75
2023-04-04T13:41:54.177Z,1.38
2023-04-04T13:44:21.868Z,1.40
2023-04-04T13:46:49.774Z,1.35
2023-04-04T13:49:17.443Z,1.50
2023-04-04T13:51:45.162Z,1.23
2023-04-04T13:54:14.163Z,1.10
2023-04-04T13:56:42.005Z,0.90
2023-04-04T13:59:10.171Z,0.80
2023-04-04T14:01:37.928Z,0.95
2023-04-04T14:04:16.540Z,0.90
2023-04-04T14:06:50.803Z,1.27
2023-04-04T14:09:20.150Z,1.10
2023-04-04T14:11:47.890Z,0.93
2023-04-04T14:14:15.594Z,1.05
2023-04-04T14:16:43.222Z,1.20
2023-04-04T14:19:10.889Z,1.10
2023-04-04T14:21:38.454Z,1.17
2023-04-04T14:24:07.438Z,1.02
2023-04-04T14:26:37.897Z,1.05
2023-04-04T14:29:05.614Z,1.27
2023-04-04T14:31:34.913Z,1.10
2023-04-04T14:34:02.777Z,1.23
2023-04-04T14:36:31.756Z,1.17
2023-04-04T14:38:59.767Z,1.05
2023-04-04T14:41:27.546Z,1.33
2023-04-04T14:43:56.648Z,1.30
2023-04-04T14:46:24.994Z,1.65
2023-04-04T14:48:53.260Z,1.70
2023-04-04T14:51:21.044Z,1.40
2023-04-04T14:53:48.767Z,1.50
2023-04-04T14:56:44.567Z,1.40
2023-04-04T14:59:14.018Z,1.67
2023-04-04T15:01:42.166Z,1.58
2023-04-04T15:04:11.481Z,1.48
2023-04-04T15:06:39.467Z,2.10
2023-04-04T15:09:08.035Z,1.88
2023-04-04T15:11:36.356Z,2.00
2023-04-04T15:14:04.180Z,2.20
2023-04-04T15:16:35.109Z,2.10
2023-04-04T15:19:03.118Z,1.58
2023-04-04T15:21:31.676Z,1.50
2023-04-04T15:23:59.343Z,1.80
2023-04-04T15:26:27.046Z,1.63
2023-04-04T15:28:54.834Z,1.65
2023-04-04T15:31:22.865Z,1.80
2023-04-04T15:33:51.862Z,1.73
2023-04-04T15:36:19.622Z,1.70
2023-04-04T15:38:47.360Z,1.70
2023-04-04T15:41:15.049Z,1.70
2023-04-04T15:43:42.657Z,2.20
2023-04-04T15:46:10.353Z,1.40
2023-04-04T15:48:38.067Z,1.83
2023-04-04T15:51:07.201Z,1.25
2023-04-04T15:53:34.979Z,1.80
2023-04-04T15:56:02.948Z,1.45
2023-04-04T15:58:30.921Z,1.40
2023-04-04T16:00:58.702Z,1.50
2023-04-04T16:03:26.490Z,1.30
2023-04-04T16:05:57.679Z,1.40
2023-04-04T16:08:26.705Z,1.15
2023-04-04T16:10:54.352Z,1.13
2023-04-04T16:13:22.622Z,1.55
2023-04-04T16:15:50.436Z,1.50
2023-04-04T16:18:18.164Z,1.60
2023-04-04T16:20:45.760Z,3.40
2023-04-04T16:23:13.454Z,1.73
2023-04-04T16:25:43.378Z,1.40
2023-04-04T16:28:11.493Z,1.00
2023-04-04T16:30:39.677Z,1.48
2023-04-04T16:33:07.807Z,1.50
2023-04-04T16:35:37.315Z,1.35
2023-04-04T16:38:05.029Z,1.42
2023-04-04T16:40:32.832Z,1.52
2023-04-04T16:43:02.023Z,1.30
2023-04-04T16:45:29.743Z,1.27
2023-04-04T16:47:57.525Z,1.60
2023-04-04T16:50:25.705Z,1.80
2023-04-04T16:52:53.280Z,2.10
2023-04-04T16:55:21.749Z,5.78
2023-04-04T16:57:49.389Z,1.77
2023-04-04T17:00:19.213Z,1.20
2023-04-04T17:02:47.137Z,1.50
2023-04-04T17:05:15.363Z,1.25
2023-04-04T17:07:43.460Z,1.50
2023-04-04T17:10:12.079Z,1.63
2023-04-04T17:12:40.203Z,1.35
2023-04-04T17:15:09.040Z,1.58
2023-04-04T17:17:38.168Z,1.58
2023-04-04T17:20:07.348Z,1.30
2023-04-04T17:22:35.101Z,1.50
2023-04-04T17:25:03.674Z,1.30
2023-04-04T17:27:31.727Z,1.60
2023-04-04T17:29:59.491Z,1.30
2023-04-04T17:32:27.201Z,1.50
2023-04-04T17:34:56.476Z,1.30
2023-04-04T17:37:24.373Z,1.27
2023-04-04T17:39:52.184Z,1.60
2023-04-04T17:42:19.903Z,1.80
2023-04-04T17:44:47.869Z,1.40
2023-04-04T17:47:16.099Z,2.60
2023-04-04T17:49:43.775Z,2.05
2023-04-04T17:52:18.791Z,1.67
2023-04-04T17:54:47.934Z,2.70
2023-04-04T17:57:15.723Z,1.70
2023-04-04T17:59:44.089Z,1.75
2023-04-04T18:02:11.984Z,1.27
2023-04-04T18:04:39.890Z,1.95
2023-04-04T18:07:08.435Z,1.85
2023-04-04T18:09:37.775Z,1.80
2023-04-04T18:12:05.527Z,3.47
2023-04-04T18:14:33.498Z,1.92
2023-04-04T18:17:01.382Z,3.30
2023-04-04T18:19:29.358Z,3.10
2023-04-04T18:21:59.883Z,2.92
2023-04-04T18:24:28.254Z,2.25
2023-04-04T18:26:57.624Z,2.13
2023-04-04T18:29:26.866Z,2.72
2023-04-04T18:31:54.742Z,2.10
2023-04-04T18:34:22.586Z,1.67
2023-04-04T18:36:50.730Z,2.83
2023-04-04T18:39:18.578Z,1.90
2023-04-04T18:41:46.553Z,1.70
2023-04-04T18:44:15.836Z,1.80
2023-04-04T18:46:43.672Z,2.00
2023-04-04T18:49:11.752Z,1.98
2023-04-04T18:51:39.762Z,2.40
2023-04-04T18:54:07.425Z,1.95
2023-04-04T18:56:36.128Z,2.65
2023-04-04T18:59:05.036Z,1.92
2023-04-04T19:01:35.879Z,2.10
2023-04-04T19:04:04.414Z,2.35
2023-04-04T19:06:33.598Z,2.40
2023-04-04T19:09:04.536Z,2.35
2023-04-04T19:11:32.440Z,2.30
2023-04-04T19:14:00.255Z,2.30
2023-04-04T19:16:28.053Z,2.53
2023-04-04T19:18:57.282Z,2.45
2023-04-04T19:21:25.096Z,2.65
2023-04-04T19:23:53.076Z,2.70
2023-04-04T19:26:21.246Z,2.60
2023-04-04T19:28:49.007Z,2.90
2023-04-04T19:31:21.713Z,2.53
2023-04-04T19:33:50.652Z,3.00
2023-04-04T19:36:20.882Z,2.85
2023-04-04T19:38:49.352Z,2.78
2023-04-04T19:41:33.717Z,3.25
2023-04-04T19:44:01.612Z,3.33
2023-04-04T19:46:31.662Z,3.40
2023-04-04T19:49:00.300Z,5.28
2023-04-04T19:51:39.037Z,3.33
2023-04-04T19:54:09.097Z,3.97
2023-04-04T19:56:37.315Z,3.35
2023-04-04T19:59:08.079Z,3.83
2023-04-04T20:01:42.532Z,2.92
2023-04-04T20:04:15.281Z,2.92
2023-04-04T20:06:44.552Z,3.25
2023-04-04T20:09:28.579Z,3.30
2023-04-04T20:11:56.203Z,4.13
2023-04-04T20:14:24.014Z,3.58
2023-04-04T20:16:52.282Z,3.58
2023-04-04T20:19:22.668Z,3.38
2023-04-04T20:21:52.055Z,3.53
2023-04-04T20:24:23.141Z,3.15
2023-04-04T20:26:54.460Z,3.50
2023-04-04T20:29:25.483Z,4.00
2023-04-04T20:31:57.896Z,4.05
2023-04-04T20:34:41.173Z,3.85
2023-04-04T20:37:12.996Z,3.63
2023-04-04T20:39:44.906Z,3.78
2023-04-04T20:42:34.924Z,4.38
2023-04-04T20:45:31.578Z,3.90
2023-04-04T20:48:00.662Z,4.05
2023-04-04T20:50:45.548Z,3.85
2023-04-04T20:53:19.666Z,4.40
2023-04-04T20:55:47.507Z,4.15
2023-04-04T20:58:28.265Z,5.95
2023-04-04T21:00:57.915Z,4.43
2023-04-04T21:03:38.392Z,4.03
2023-04-04T21:06:15.350Z,4.32
2023-04-04T21:08:46.865Z,4.38
2023-04-04T21:11:19.631Z,4.22
2023-04-04T21:13:47.492Z,4.20
2023-04-04T21:16:17.482Z,4.18
2023-04-04T21:18:45.936Z,4.07
2023-04-04T21:21:18.523Z,4.55
2023-04-04T21:23:50.316Z,4.03
2023-04-04T21:26:36.475Z,4.18
2023-04-04T21:29:05.842Z,3.63
2023-04-04T21:31:38.215Z,4.03
2023-04-04T21:34:14.809Z,3.72
2023-04-04T21:36:42.907Z,3.50
2023-04-04T21:39:16.467Z,4.28
2023-04-04T21:41:45.682Z,4.20
2023-04-04T21:44:13.330Z,4.28
2023-04-04T21:46:42.719Z,4.03
2023-04-04T21:49:10.978Z,4.00
2023-04-04T21:51:38.713Z,3.40
2023-04-04T21:54:06.681Z,3.50
2023-04-04T21:56:37.020Z,3.53
2023-04-04T21:59:08.014Z,3.20
2023-04-04T22:01:36.096Z,3.10
2023-04-04T22:04:04.168Z,3.47
2023-04-04T22:06:32.097Z,3.28
2023-04-04T22:09:01.470Z,2.90
2023-04-04T22:11:30.053Z,3.55
2023-04-04T22:14:04.524Z,3.40
2023-04-04T22:16:36.948Z,3.35
2023-04-04T22:19:05.134Z,2.78
2023-04-04T22:21:36.575Z,2.63
2023-04-04T22:24:06.137Z,2.53
2023-04-04T22:26:34.268Z,2.83
2023-04-04T22:29:05.337Z,2.33
2023-04-04T22:31:34.974Z,2.70
2023-04-04T22:34:03.178Z,2.13
2023-04-04T22:36:31.312Z,2.42
2023-04-04T22:38:59.118Z,2.17
2023-04-04T22:41:28.632Z,2.58
2023-04-04T22:43:57.355Z,1.95
2023-04-04T22:46:28.794Z,2.10
2023-04-04T22:49:04.968Z,2.05
2023-04-04T22:51:34.798Z,2.20
2023-04-04T22:54:03.317Z,2.08
2023-04-04T22:56:30.992Z,2.25
2023-04-04T22:58:58.923Z,2.67
2023-04-04T23:01:28.087Z,2.28
2023-04-04T23:03:55.857Z,2.60
2023-04-04T23:06:23.893Z,2.85
2023-04-04T23:08:51.483Z,2.70
2023-04-04T23:11:19.076Z,2.70
2023-04-04T23:13:47.170Z,3.05
2023-04-04T23:16:14.995Z,2.42
2023-04-04T23:18:44.027Z,2.70
2023-04-04T23:21:11.708Z,2.88
2023-04-04T23:23:39.404Z,2.35
2023-04-04T23:26:07.099Z,2.40
2023-04-04T23:28:34.808Z,2.97
2023-04-04T23:31:02.549Z,3.13
2023-04-04T23:33:30.292Z,2.40
2023-04-04T23:35:59.358Z,2.70
2023-04-04T23:38:27.073Z,2.35
2023-04-04T23:40:54.746Z,2.42
2023-04-04T23:43:22.433Z,2.58
2023-04-04T23:45:50.901Z,2.55
2023-04-04T23:48:18.639Z,2.42
2023-04-04T23:50:46.265Z,2.75
2023-04-04T23:53:15.310Z,2.30
2023-04-04T23:55:42.934Z,2.30
2023-04-04T23:58:10.556Z,2.47
